METAR Analyzer

一覧表示

Hello, Guest. (Login)

SCRM/TNM  -  エドゥアルド・フレイ・モンタルバ基地

観測日時
2020-10-20 02:00 (UTC) (20分前)
気温
-9
露点
-13
湿数
4
相対湿度
72.7%
QNH
996hPa
推定現地気圧
990.7hPa
推定海面気圧
996.5hPa
体感温度
-24.4
(無風時)
-2.4
HI
-11.9
気温前日比
-2
体感温度前日比
+9.9
HI前日比
-2.7
水平視程
>10000m
鉛直視程
データなし
雲底高度
No dense clouds
V/I
VMC (VFR)
RVR
No RVR data
卓越風
9kt from 140°
ガスト
No gust
降水
報告なし
その他の天気
報告なし
報告なし

SCRM 200200Z 14009KT CAVOK M09/M13 Q0996 NOSIG

28.2msec